createdAt,value
2022-09-23T00:00:28.132Z,15.33
2022-09-23T00:01:28.137Z,15.53
2022-09-23T00:02:28.164Z,15.52
2022-09-23T00:03:28.103Z,15.53
2022-09-23T00:04:28.129Z,15.59
2022-09-23T00:05:28.133Z,15.64
2022-09-23T00:06:28.077Z,15.77
2022-09-23T00:07:28.105Z,15.86
2022-09-23T00:08:28.074Z,15.80
2022-09-23T00:09:28.058Z,15.85
2022-09-23T00:10:28.025Z,15.82
2022-09-23T00:11:28.024Z,15.84
2022-09-23T00:12:28.010Z,15.84
2022-09-23T00:13:28.022Z,15.78
2022-09-23T00:14:27.985Z,15.67
2022-09-23T00:15:27.985Z,15.71
2022-09-23T00:16:28.011Z,15.57
2022-09-23T00:17:27.957Z,15.60
2022-09-23T00:18:27.968Z,15.49
2022-09-23T00:19:27.915Z,15.45
2022-09-23T00:20:27.915Z,15.42
2022-09-23T00:21:27.895Z,15.41
2022-09-23T00:22:27.874Z,15.30
2022-09-23T00:23:27.881Z,15.28
2022-09-23T00:24:27.861Z,15.30
2022-09-23T00:25:27.881Z,15.22
2022-09-23T00:26:27.842Z,15.17
2022-09-23T00:27:27.835Z,15.16
2022-09-23T00:28:27.853Z,15.12
2022-09-23T00:29:27.801Z,15.17
2022-09-23T00:30:27.855Z,15.11
2022-09-23T00:31:27.786Z,15.09
2022-09-23T00:32:27.756Z,15.13
2022-09-23T00:33:27.753Z,15.10
2022-09-23T00:34:27.761Z,15.12
2022-09-23T00:35:27.733Z,15.14
2022-09-23T00:36:27.729Z,15.10
2022-09-23T00:37:27.713Z,15.15
2022-09-23T00:38:27.699Z,15.09
2022-09-23T00:39:27.704Z,15.13
2022-09-23T00:40:27.735Z,15.11
2022-09-23T00:41:27.666Z,15.14
2022-09-23T00:42:27.669Z,15.15
2022-09-23T00:43:27.649Z,15.13
2022-09-23T00:44:27.644Z,15.18
2022-09-23T00:45:27.617Z,15.21
2022-09-23T00:46:27.680Z,15.17
2022-09-23T00:47:27.595Z,15.26
2022-09-23T00:48:27.616Z,15.25
2022-09-23T00:49:27.618Z,15.28
2022-09-23T00:50:27.562Z,15.27
2022-09-23T00:51:27.553Z,15.27
2022-09-23T00:52:27.546Z,15.22
2022-09-23T00:53:27.538Z,15.28
2022-09-23T00:54:27.535Z,15.31
2022-09-23T00:55:27.512Z,15.31
2022-09-23T00:56:27.511Z,15.25
2022-09-23T00:57:27.487Z,15.28
2022-09-23T00:58:27.481Z,15.25
2022-09-23T00:59:27.486Z,15.27
2022-09-23T01:00:27.448Z,15.24
2022-09-23T01:01:27.478Z,15.26
2022-09-23T01:02:27.501Z,15.28
2022-09-23T01:03:27.416Z,15.26
2022-09-23T01:04:27.409Z,15.30
2022-09-23T01:05:27.428Z,15.23
2022-09-23T01:06:27.383Z,15.30
2022-09-23T01:07:27.365Z,15.28
2022-09-23T01:08:27.353Z,15.25
2022-09-23T01:09:27.352Z,15.25
2022-09-23T01:10:27.337Z,15.23
2022-09-23T01:11:27.345Z,15.31
2022-09-23T01:12:27.315Z,15.19
2022-09-23T01:13:27.306Z,15.17
2022-09-23T01:14:27.283Z,15.22
2022-09-23T01:15:27.276Z,15.15
2022-09-23T01:16:27.345Z,15.17
2022-09-23T01:17:27.256Z,15.13
2022-09-23T01:18:27.248Z,15.07
2022-09-23T01:19:27.238Z,15.11
2022-09-23T01:20:27.227Z,15.11
2022-09-23T01:21:27.229Z,15.05
2022-09-23T01:22:27.231Z,15.06
2022-09-23T01:23:27.186Z,15.06
2022-09-23T01:24:27.195Z,15.10
2022-09-23T01:25:27.166Z,15.02
2022-09-23T01:26:27.167Z,15.06
2022-09-23T01:27:27.157Z,15.03
2022-09-23T01:28:27.125Z,14.99
2022-09-23T01:29:27.132Z,14.97
2022-09-23T01:30:27.153Z,14.95
2022-09-23T01:31:27.108Z,14.99
2022-09-23T01:32:27.081Z,14.91
2022-09-23T01:33:27.070Z,15.03
2022-09-23T01:34:27.057Z,14.98
2022-09-23T01:35:27.056Z,14.98
2022-09-23T01:36:27.047Z,15.00
2022-09-23T01:37:27.030Z,15.01
2022-09-23T01:38:27.017Z,14.98
2022-09-23T01:39:26.999Z,14.93
2022-09-23T01:40:27.011Z,14.99
2022-09-23T01:41:26.998Z,14.98
2022-09-23T01:42:26.968Z,15.00
2022-09-23T01:43:26.957Z,15.05
2022-09-23T01:44:26.945Z,15.03
2022-09-23T01:45:26.939Z,15.04
2022-09-23T01:46:26.931Z,14.99
2022-09-23T01:47:26.923Z,15.04
2022-09-23T01:48:26.952Z,15.10
2022-09-23T01:49:26.896Z,15.03
2022-09-23T01:50:26.876Z,15.07
2022-09-23T01:51:26.878Z,15.11
2022-09-23T01:52:26.875Z,15.13
2022-09-23T01:53:26.851Z,15.09
2022-09-23T01:54:26.839Z,15.15
2022-09-23T01:55:26.851Z,15.16
2022-09-23T01:56:26.809Z,15.17
2022-09-23T01:57:26.797Z,15.19
2022-09-23T01:58:26.809Z,15.17
2022-09-23T01:59:26.787Z,15.26
2022-09-23T02:00:26.764Z,15.21
2022-09-23T02:01:26.780Z,15.24
2022-09-23T02:02:26.841Z,15.21
2022-09-23T02:03:26.750Z,15.23
2022-09-23T02:04:26.718Z,15.30
2022-09-23T02:05:26.710Z,15.28
2022-09-23T02:06:26.699Z,15.28
2022-09-23T02:07:26.678Z,15.34
2022-09-23T02:08:26.684Z,15.37
2022-09-23T02:09:26.654Z,15.36
2022-09-23T02:10:26.641Z,15.36
2022-09-23T02:11:26.659Z,15.37
2022-09-23T02:12:26.626Z,15.41
2022-09-23T02:13:26.646Z,15.37
2022-09-23T02:14:26.595Z,15.41
2022-09-23T02:15:26.591Z,15.40
2022-09-23T02:16:26.642Z,15.36
2022-09-23T02:17:26.585Z,15.50
2022-09-23T02:18:26.556Z,15.46
2022-09-23T02:19:26.561Z,15.45
2022-09-23T02:20:26.544Z,15.51
2022-09-23T02:21:26.528Z,15.49
2022-09-23T02:22:26.508Z,15.50
2022-09-23T02:23:26.506Z,15.50
2022-09-23T02:24:26.521Z,15.56
2022-09-23T02:25:26.479Z,15.53
2022-09-23T02:26:26.456Z,15.58
2022-09-23T02:27:26.459Z,15.56
2022-09-23T02:28:26.453Z,15.62
2022-09-23T02:29:26.450Z,15.65
2022-09-23T02:30:26.421Z,15.67
2022-09-23T02:31:26.435Z,15.73
2022-09-23T02:32:26.398Z,15.73
2022-09-23T02:33:26.390Z,15.73
2022-09-23T02:34:26.392Z,15.84
2022-09-23T02:35:26.359Z,15.81
2022-09-23T02:36:26.361Z,15.84
2022-09-23T02:37:26.344Z,15.87
2022-09-23T02:38:26.345Z,16.00
2022-09-23T02:39:26.310Z,15.97
2022-09-23T02:40:26.428Z,16.02
2022-09-23T02:41:26.283Z,16.14
2022-09-23T02:42:26.290Z,16.04
2022-09-23T02:43:26.281Z,16.13
2022-09-23T02:44:26.272Z,16.18
2022-09-23T02:45:26.263Z,16.19
2022-09-23T02:46:26.257Z,16.18
2022-09-23T02:47:26.220Z,16.23
2022-09-23T02:48:26.221Z,16.26
2022-09-23T02:49:26.211Z,16.30
2022-09-23T02:50:26.210Z,16.30
2022-09-23T02:51:26.190Z,16.32
2022-09-23T02:52:26.166Z,16.37
2022-09-23T02:53:26.153Z,16.41
2022-09-23T02:54:26.161Z,16.38
2022-09-23T02:55:26.149Z,16.41
2022-09-23T02:56:26.128Z,16.44
2022-09-23T02:57:26.125Z,16.39
2022-09-23T02:58:26.101Z,16.42
2022-09-23T02:59:26.081Z,16.41
2022-09-23T03:00:26.095Z,16.39
2022-09-23T03:01:26.089Z,16.43
2022-09-23T03:02:26.093Z,16.48
2022-09-23T03:03:26.042Z,16.51
2022-09-23T03:04:26.041Z,16.50
2022-09-23T03:05:26.043Z,16.44
2022-09-23T03:06:26.029Z,16.43
2022-09-23T03:07:25.995Z,16.41
2022-09-23T03:08:25.989Z,16.47
2022-09-23T03:09:26.010Z,16.42
2022-09-23T03:10:25.966Z,16.46
2022-09-23T03:11:25.971Z,16.38
2022-09-23T03:12:25.947Z,16.42
2022-09-23T03:13:29.224Z,16.43
2022-09-23T03:14:25.946Z,16.43
2022-09-23T03:15:25.902Z,16.38
2022-09-23T03:16:25.934Z,16.44
2022-09-23T03:17:25.889Z,16.50
2022-09-23T03:18:25.874Z,16.43
2022-09-23T03:19:25.855Z,16.44
2022-09-23T03:20:25.854Z,16.53
2022-09-23T03:21:25.832Z,16.48
2022-09-23T03:22:25.848Z,16.46
2022-09-23T03:23:25.817Z,16.57
2022-09-23T03:24:25.810Z,16.57
2022-09-23T03:25:25.802Z,16.60
2022-09-23T03:26:25.779Z,16.56
2022-09-23T03:27:25.796Z,16.64
2022-09-23T03:28:25.763Z,16.59
2022-09-23T03:29:25.745Z,16.59
2022-09-23T03:30:25.740Z,16.63
2022-09-23T03:31:25.795Z,16.65
2022-09-23T03:32:25.724Z,16.68
2022-09-23T03:33:28.544Z,16.63
2022-09-23T03:34:25.693Z,16.70
2022-09-23T03:35:25.681Z,16.67
2022-09-23T03:36:25.668Z,16.72
2022-09-23T03:37:25.642Z,16.80
2022-09-23T03:38:25.656Z,16.84
2022-09-23T03:39:25.634Z,16.83
2022-09-23T03:40:25.703Z,16.83
2022-09-23T03:41:25.604Z,16.89
2022-09-23T03:42:25.609Z,16.88
2022-09-23T03:43:25.639Z,16.92
2022-09-23T03:44:25.583Z,16.88
2022-09-23T03:45:25.593Z,16.92
2022-09-23T03:46:25.552Z,16.93
2022-09-23T03:47:25.542Z,16.95
2022-09-23T03:48:25.547Z,16.96
2022-09-23T03:49:25.526Z,16.95
2022-09-23T03:50:25.523Z,17.02
2022-09-23T03:51:25.508Z,16.93
2022-09-23T03:52:25.501Z,16.96
2022-09-23T03:53:25.503Z,17.03
2022-09-23T03:54:25.453Z,17.04
2022-09-23T03:55:25.441Z,16.99
2022-09-23T03:56:25.434Z,17.02
2022-09-23T03:57:25.434Z,17.00
2022-09-23T03:58:25.430Z,17.06
2022-09-23T03:59:25.401Z,16.93
2022-09-23T04:00:25.399Z,17.03
2022-09-23T04:01:25.508Z,17.03
2022-09-23T04:02:25.430Z,17.03
2022-09-23T04:03:25.382Z,17.02
2022-09-23T04:04:25.350Z,17.06
2022-09-23T04:05:25.324Z,17.04
2022-09-23T04:06:25.314Z,17.02
2022-09-23T04:07:25.307Z,17.03
2022-09-23T04:08:25.307Z,17.02
2022-09-23T04:09:25.295Z,17.00
2022-09-23T04:10:25.288Z,16.98
2022-09-23T04:11:25.260Z,16.91
2022-09-23T04:12:25.288Z,16.98
2022-09-23T04:13:25.280Z,16.98
2022-09-23T04:14:25.269Z,16.95
2022-09-23T04:15:25.252Z,17.00
2022-09-23T04:16:25.315Z,16.96
2022-09-23T04:17:25.277Z,16.87
2022-09-23T04:18:25.191Z,16.99
2022-09-23T04:19:25.163Z,16.99
2022-09-23T04:20:25.182Z,16.93
2022-09-23T04:21:25.154Z,17.02
2022-09-23T04:22:25.146Z,16.98
2022-09-23T04:23:25.135Z,16.99
2022-09-23T04:24:25.111Z,16.93
2022-09-23T04:25:25.123Z,16.95
2022-09-23T04:26:25.096Z,16.98
2022-09-23T04:27:25.091Z,16.99
2022-09-23T04:28:25.074Z,17.00
2022-09-23T04:29:25.057Z,17.02
2022-09-23T04:30:25.068Z,17.00
2022-09-23T04:31:25.090Z,17.00
2022-09-23T04:32:25.042Z,16.99
2022-09-23T04:33:25.005Z,17.00
2022-09-23T04:34:25.017Z,17.02
2022-09-23T04:35:24.975Z,17.03
2022-09-23T04:36:24.987Z,16.98
2022-09-23T04:37:24.978Z,17.03
2022-09-23T04:38:24.956Z,16.93
2022-09-23T04:39:24.938Z,17.02
2022-09-23T04:40:24.967Z,17.06
2022-09-23T04:41:24.908Z,17.02
2022-09-23T04:42:24.913Z,17.07
2022-09-23T04:43:24.893Z,17.10
2022-09-23T04:44:24.884Z,17.04
2022-09-23T04:45:24.888Z,17.13
2022-09-23T04:46:24.950Z,17.10
2022-09-23T04:47:24.861Z,17.07
2022-09-23T04:48:24.875Z,17.11
2022-09-23T04:49:24.817Z,17.07
2022-09-23T04:50:24.841Z,17.13
2022-09-23T04:51:24.805Z,17.08
2022-09-23T04:52:24.785Z,17.07
2022-09-23T04:53:24.786Z,17.23
2022-09-23T04:54:24.777Z,17.14
2022-09-23T04:55:24.770Z,17.14
2022-09-23T04:56:24.747Z,17.17
2022-09-23T04:57:24.747Z,17.18
2022-09-23T04:58:24.728Z,17.18
2022-09-23T04:59:24.707Z,17.24
2022-09-23T05:00:24.748Z,17.20
2022-09-23T05:01:24.882Z,17.13
2022-09-23T05:02:24.761Z,17.23
2022-09-23T05:03:24.667Z,17.18
2022-09-23T05:04:24.657Z,17.20
2022-09-23T05:05:24.661Z,17.24
2022-09-23T05:06:24.651Z,17.16
2022-09-23T05:07:24.621Z,17.21
2022-09-23T05:08:24.625Z,17.17
2022-09-23T05:09:24.598Z,17.21
2022-09-23T05:10:24.613Z,17.23
2022-09-23T05:11:24.581Z,17.23
2022-09-23T05:12:24.588Z,17.21
2022-09-23T05:13:24.561Z,17.27
2022-09-23T05:14:24.542Z,17.27
2022-09-23T05:15:24.534Z,17.16
2022-09-23T05:16:24.638Z,17.23
2022-09-23T05:17:24.514Z,17.21
2022-09-23T05:18:24.499Z,17.21
2022-09-23T05:19:24.502Z,17.21
2022-09-23T05:20:24.481Z,17.24
2022-09-23T05:21:24.481Z,17.21
2022-09-23T05:22:24.461Z,17.25
2022-09-23T05:23:24.447Z,17.28
2022-09-23T05:24:24.418Z,17.23
2022-09-23T05:25:24.429Z,17.28
2022-09-23T05:26:24.427Z,17.24
2022-09-23T05:27:24.395Z,17.31
2022-09-23T05:28:24.382Z,17.30
2022-09-23T05:29:24.373Z,17.28
2022-09-23T05:30:24.363Z,17.27
2022-09-23T05:31:24.381Z,17.25
2022-09-23T05:32:24.350Z,17.34
2022-09-23T05:33:24.331Z,17.27
2022-09-23T05:34:24.321Z,17.31
2022-09-23T05:35:24.312Z,17.30
2022-09-23T05:36:24.309Z,17.31
2022-09-23T05:37:24.285Z,17.20
2022-09-23T05:38:24.271Z,17.24
2022-09-23T05:39:24.261Z,17.24
2022-09-23T05:40:24.280Z,17.24
2022-09-23T05:41:24.242Z,17.24
2022-09-23T05:42:24.248Z,17.25
2022-09-23T05:43:24.214Z,17.21
2022-09-23T05:44:24.202Z,17.21
2022-09-23T05:45:26.260Z,17.17
2022-09-23T05:46:24.276Z,17.20
2022-09-23T05:47:24.200Z,17.14
2022-09-23T05:48:24.152Z,17.16
2022-09-23T05:49:37.732Z,17.17
2022-09-23T05:50:25.158Z,17.10
2022-09-23T05:51:28.774Z,17.14
2022-09-23T05:52:25.141Z,17.11
2022-09-23T05:53:24.100Z,17.11
2022-09-23T05:54:24.092Z,17.11
2022-09-23T05:55:24.090Z,17.17
2022-09-23T05:56:24.072Z,17.14
2022-09-23T05:57:24.078Z,17.02
2022-09-23T05:58:24.084Z,17.06
2022-09-23T05:59:24.032Z,17.03
2022-09-23T06:00:24.034Z,17.04
2022-09-23T06:01:24.027Z,16.95
2022-09-23T06:02:24.137Z,17.04
2022-09-23T06:03:24.037Z,17.06
2022-09-23T06:04:24.018Z,16.95
2022-09-23T06:05:23.974Z,16.95
2022-09-23T06:06:23.962Z,17.00
2022-09-23T06:07:23.960Z,16.93
2022-09-23T06:08:23.944Z,17.02
2022-09-23T06:09:23.923Z,16.98
2022-09-23T06:10:23.912Z,17.00
2022-09-23T06:11:23.902Z,17.02
2022-09-23T06:12:23.902Z,17.02
2022-09-23T06:13:23.891Z,17.03
2022-09-23T06:14:23.880Z,17.00
2022-09-23T06:15:23.843Z,16.99
2022-09-23T06:16:23.884Z,17.00
2022-09-23T06:17:23.844Z,17.00
2022-09-23T06:18:23.827Z,17.00
2022-09-23T06:19:23.807Z,17.02
2022-09-23T06:20:23.796Z,16.99
2022-09-23T06:21:23.780Z,17.02
2022-09-23T06:22:23.773Z,17.04
2022-09-23T06:23:26.400Z,17.08
2022-09-23T06:24:28.620Z,17.08
2022-09-23T06:25:24.738Z,17.10
2022-09-23T06:26:23.743Z,17.11
2022-09-23T06:27:23.722Z,17.14
2022-09-23T06:28:23.712Z,17.06
2022-09-23T06:29:23.697Z,17.13
2022-09-23T06:30:23.703Z,17.13
2022-09-23T06:31:23.724Z,17.14
2022-09-23T06:32:23.664Z,17.23
2022-09-23T06:33:34.719Z,17.17
2022-09-23T06:34:24.635Z,17.25
2022-09-23T06:35:27.419Z,17.27
2022-09-23T06:36:39.136Z,17.28
2022-09-23T06:37:24.594Z,17.30
2022-09-23T06:38:23.588Z,17.27
2022-09-23T06:39:23.589Z,17.23
2022-09-23T06:40:23.691Z,17.28
2022-09-23T06:41:23.552Z,17.30
2022-09-23T06:42:23.545Z,17.28
2022-09-23T06:43:23.559Z,17.40
2022-09-23T06:44:23.594Z,17.44
2022-09-23T06:45:23.520Z,17.51
2022-09-23T06:46:23.575Z,17.59
2022-09-23T06:47:23.513Z,17.67
2022-09-23T06:48:23.484Z,17.87
2022-09-23T06:49:23.494Z,17.96
2022-09-23T06:50:23.473Z,18.31
2022-09-23T06:51:23.470Z,18.57
2022-09-23T06:52:23.427Z,18.92
2022-09-23T06:53:23.435Z,19.33
2022-09-23T06:54:23.432Z,19.90
2022-09-23T06:55:23.461Z,20.68
2022-09-23T06:56:23.399Z,21.27
2022-09-23T06:57:23.383Z,22.24
2022-09-23T06:58:23.369Z,23.35
2022-09-23T06:59:23.367Z,24.26
2022-09-23T07:00:23.336Z,24.92
2022-09-23T07:01:23.430Z,25.83
2022-09-23T07:02:23.420Z,26.41
2022-09-23T07:03:23.316Z,27.16
2022-09-23T07:04:26.119Z,28.05
2022-09-23T07:05:24.327Z,28.58
2022-09-23T07:06:23.282Z,29.52
2022-09-23T07:07:23.275Z,30.20
2022-09-23T07:08:23.263Z,30.87
2022-09-23T07:09:23.246Z,31.40
2022-09-23T07:10:23.234Z,32.14
2022-09-23T07:11:23.264Z,32.90
2022-09-23T07:12:23.196Z,33.13
2022-09-23T07:13:23.212Z,33.74
2022-09-23T07:14:23.176Z,34.07
2022-09-23T07:15:23.196Z,34.29
2022-09-23T07:16:23.274Z,34.40
2022-09-23T07:17:23.159Z,34.71
2022-09-23T07:18:23.154Z,34.51
2022-09-23T07:19:23.138Z,34.69
2022-09-23T07:20:23.118Z,35.15
2022-09-23T07:21:23.118Z,36.05
2022-09-23T07:22:23.100Z,36.58
2022-09-23T07:23:23.078Z,36.91
2022-09-23T07:24:23.062Z,37.00
2022-09-23T07:25:23.058Z,37.47
2022-09-23T07:26:23.087Z,38.11
2022-09-23T07:27:23.072Z,38.49
2022-09-23T07:28:23.044Z,38.88
2022-09-23T07:29:23.037Z,38.74
2022-09-23T07:30:25.415Z,39.17
2022-09-23T07:31:34.953Z,39.99
2022-09-23T07:32:24.069Z,40.53
2022-09-23T07:33:31.809Z,40.69
2022-09-23T07:34:23.962Z,41.33
2022-09-23T07:35:22.940Z,41.53
2022-09-23T07:36:22.954Z,42.24
2022-09-23T07:37:22.920Z,42.67
2022-09-23T07:38:22.901Z,43.20
2022-09-23T07:39:22.894Z,43.83
2022-09-23T07:40:22.942Z,44.19
2022-09-23T07:41:22.872Z,45.88
2022-09-23T07:42:22.877Z,47.11
2022-09-23T07:43:22.855Z,48.17
2022-09-23T07:44:22.851Z,49.70
2022-09-23T07:45:22.853Z,50.57
2022-09-23T07:46:22.892Z,50.97
2022-09-23T07:47:22.812Z,50.88
2022-09-23T07:48:22.831Z,50.94
2022-09-23T07:49:22.797Z,51.75
2022-09-23T07:50:22.993Z,52.63
2022-09-23T07:51:22.788Z,53.81
2022-09-23T07:52:22.792Z,54.65
2022-09-23T07:53:22.747Z,55.22
2022-09-23T07:54:22.746Z,55.33
2022-09-23T07:55:22.742Z,55.55
2022-09-23T07:56:22.701Z,57.02
2022-09-23T07:57:22.712Z,58.90
2022-09-23T07:58:22.690Z,61.04
2022-09-23T07:59:22.677Z,62.96
2022-09-23T08:00:22.851Z,61.66
2022-09-23T08:01:22.729Z,61.62
2022-09-23T08:02:22.762Z,62.26
2022-09-23T08:03:22.634Z,62.72
2022-09-23T08:04:22.614Z,64.16
2022-09-23T08:05:22.600Z,66.39
2022-09-23T08:06:22.614Z,69.00
2022-09-23T08:07:22.605Z,71.65
2022-09-23T08:08:22.596Z,73.85
2022-09-23T08:09:22.575Z,75.71
2022-09-23T08:10:22.693Z,75.71
2022-09-23T08:11:22.545Z,75.99
2022-09-23T08:12:22.563Z,77.82
2022-09-23T08:13:22.572Z,80.35
2022-09-23T08:14:22.512Z,79.59
2022-09-23T08:15:22.494Z,76.06
2022-09-23T08:16:22.558Z,74.77
2022-09-23T08:17:22.487Z,76.33
2022-09-23T08:18:22.489Z,79.44
2022-09-23T08:19:22.453Z,81.91
2022-09-23T08:20:22.486Z,84.89
2022-09-23T08:21:22.432Z,86.73
2022-09-23T08:22:22.416Z,89.03
2022-09-23T08:23:22.419Z,89.69
2022-09-23T08:24:22.397Z,91.95
2022-09-23T08:25:22.847Z,94.11
2022-09-23T08:26:22.663Z,94.93
2022-09-23T08:27:22.362Z,95.96
2022-09-23T08:28:22.376Z,98.49
2022-09-23T08:29:22.351Z,100.25
2022-09-23T08:30:22.336Z,102.33
2022-09-23T08:31:22.428Z,104.49
2022-09-23T08:32:22.302Z,105.81
2022-09-23T08:33:23.525Z,108.96
2022-09-23T08:34:22.308Z,109.81
2022-09-23T08:35:22.283Z,111.34
2022-09-23T08:36:22.274Z,111.64
2022-09-23T08:37:22.238Z,111.71
2022-09-23T08:38:22.223Z,111.71
2022-09-23T08:39:22.268Z,110.97
2022-09-23T08:40:22.337Z,111.86
2022-09-23T08:41:22.224Z,111.56
2022-09-23T08:42:22.212Z,109.17
2022-09-23T08:43:22.173Z,107.77
2022-09-23T08:44:22.169Z,108.19
2022-09-23T08:45:22.165Z,106.81
2022-09-23T08:46:22.180Z,106.07
2022-09-23T08:47:22.167Z,107.84
2022-09-23T08:48:22.111Z,107.43
2022-09-23T08:49:22.129Z,105.74
2022-09-23T08:50:22.113Z,105.21
2022-09-23T08:51:22.095Z,105.34
2022-09-23T08:52:22.070Z,103.91
2022-09-23T08:53:22.070Z,101.40
2022-09-23T08:54:22.053Z,101.04
2022-09-23T08:55:22.043Z,101.22
2022-09-23T08:56:22.033Z,103.33
2022-09-23T08:57:22.021Z,106.00
2022-09-23T08:58:26.213Z,109.17
2022-09-23T08:59:22.049Z,113.52
2022-09-23T09:00:22.077Z,119.41
2022-09-23T09:01:22.000Z,122.90
2022-09-23T09:02:22.028Z,124.08
2022-09-23T09:03:21.944Z,127.27
2022-09-23T09:04:21.932Z,129.83
2022-09-23T09:05:21.964Z,130.73
2022-09-23T09:06:21.904Z,133.96
2022-09-23T09:07:38.155Z,135.04
2022-09-23T09:08:22.889Z,137.58
2022-09-23T09:09:21.863Z,141.04
2022-09-23T09:10:21.864Z,142.60
2022-09-23T09:11:21.841Z,142.24
2022-09-23T09:12:21.851Z,143.57
2022-09-23T09:13:21.851Z,144.81
2022-09-23T09:14:21.817Z,146.07
2022-09-23T09:15:24.716Z,146.71
2022-09-23T09:16:36.627Z,147.61
2022-09-23T09:17:22.776Z,147.61
2022-09-23T09:18:21.769Z,146.58
2022-09-23T09:19:21.796Z,146.83
2022-09-23T09:20:21.759Z,146.96
2022-09-23T09:21:21.788Z,146.32
2022-09-23T09:22:21.740Z,145.06
2022-09-23T09:23:21.725Z,144.68
2022-09-23T09:24:21.704Z,143.45
2022-09-23T09:25:21.728Z,142.84
2022-09-23T09:26:21.712Z,141.52
2022-09-23T09:27:21.688Z,136.13
2022-09-23T09:28:21.683Z,129.93
2022-09-23T09:29:34.765Z,123.35
2022-09-23T09:30:22.673Z,118.48
2022-09-23T09:31:21.681Z,116.51
2022-09-23T09:32:21.619Z,118.40
2022-09-23T09:33:21.602Z,117.73
2022-09-23T09:34:21.577Z,118.48
2022-09-23T09:35:21.615Z,120.61
2022-09-23T09:36:21.587Z,125.65
2022-09-23T09:37:21.565Z,128.73
2022-09-23T09:38:21.543Z,130.53
2022-09-23T09:39:25.526Z,129.93
2022-09-23T09:40:21.565Z,132.49
2022-09-23T09:41:21.522Z,133.64
2022-09-23T09:42:21.498Z,134.50
2022-09-23T09:43:21.478Z,135.04
2022-09-23T09:44:21.459Z,135.91
2022-09-23T09:45:21.449Z,136.02
2022-09-23T09:46:21.480Z,135.69
2022-09-23T09:47:21.462Z,137.24
2022-09-23T09:48:21.421Z,138.15
2022-09-23T09:49:21.399Z,138.83
2022-09-23T09:50:21.391Z,137.13
2022-09-23T09:51:21.390Z,134.07
2022-09-23T09:52:21.397Z,130.94
2022-09-23T09:53:21.325Z,130.94
2022-09-23T09:54:21.325Z,130.33
2022-09-23T09:55:21.295Z,130.13
2022-09-23T09:56:21.279Z,126.98
2022-09-23T09:57:21.257Z,123.44
2022-09-23T09:58:21.278Z,120.43
2022-09-23T09:59:21.247Z,118.23
2022-09-23T10:00:21.230Z,116.19
2022-09-23T10:01:21.331Z,113.67
2022-09-23T10:02:21.208Z,111.19
2022-09-23T10:03:21.228Z,111.49
2022-09-23T10:04:21.233Z,112.83
2022-09-23T10:05:21.195Z,115.71
2022-09-23T10:06:21.160Z,118.48
2022-09-23T10:07:21.154Z,119.41
2022-09-23T10:08:21.139Z,119.83
2022-09-23T10:09:21.156Z,119.15
2022-09-23T10:10:32.243Z,119.83
2022-09-23T10:11:22.115Z,123.17
2022-09-23T10:12:21.103Z,125.56
2022-09-23T10:13:21.080Z,129.53
2022-09-23T10:14:21.087Z,135.37
2022-09-23T10:15:21.074Z,138.83
2022-09-23T10:16:21.095Z,138.72
2022-09-23T10:17:21.041Z,137.02
2022-09-23T10:18:21.035Z,135.69
2022-09-23T10:19:21.023Z,133.22
2022-09-23T10:20:20.989Z,134.07
2022-09-23T10:21:25.455Z,135.80
2022-09-23T10:22:21.982Z,138.95
2022-09-23T10:23:20.971Z,139.75
2022-09-23T10:24:20.969Z,136.57
2022-09-23T10:25:20.948Z,135.15
2022-09-23T10:26:20.935Z,129.73
2022-09-23T10:27:20.938Z,124.91
2022-09-23T10:28:20.906Z,123.35
2022-09-23T10:29:20.916Z,122.90
2022-09-23T10:30:20.907Z,123.26
2022-09-23T10:31:20.883Z,122.81
2022-09-23T10:32:20.857Z,121.92
2022-09-23T10:33:20.866Z,121.39
2022-09-23T10:34:20.835Z,120.26
2022-09-23T10:35:20.854Z,118.98
2022-09-23T10:36:20.832Z,116.75
2022-09-23T10:37:20.820Z,114.68
2022-09-23T10:38:20.800Z,110.17
2022-09-23T10:39:20.798Z,105.08
2022-09-23T10:40:20.902Z,100.49
2022-09-23T10:41:20.779Z,97.24
2022-09-23T10:42:20.761Z,94.19
2022-09-23T10:43:20.748Z,93.90
2022-09-23T10:44:20.756Z,92.96
2022-09-23T10:45:20.727Z,91.55
2022-09-23T10:46:20.798Z,90.37
2022-09-23T10:47:20.699Z,89.03
2022-09-23T10:48:20.687Z,86.11
2022-09-23T10:49:20.688Z,84.72
2022-09-23T10:50:20.661Z,83.71
2022-09-23T10:51:25.451Z,83.87
2022-09-23T10:52:21.663Z,83.62
2022-09-23T10:53:20.640Z,85.58
2022-09-23T10:54:20.618Z,87.91
2022-09-23T10:55:20.614Z,89.40
2022-09-23T10:56:20.621Z,89.88
2022-09-23T10:57:20.603Z,89.03
2022-09-23T10:58:20.604Z,86.82
2022-09-23T10:59:20.577Z,83.21
2022-09-23T11:00:20.554Z,78.84
2022-09-23T11:01:20.674Z,75.71
2022-09-23T11:02:20.536Z,73.92
2022-09-23T11:03:20.529Z,71.65
2022-09-23T11:04:20.858Z,70.86
2022-09-23T11:05:20.506Z,72.64
2022-09-23T11:06:20.497Z,75.65
2022-09-23T11:07:20.496Z,77.67
2022-09-23T11:08:20.478Z,78.62
2022-09-23T11:09:20.475Z,77.67
2022-09-23T11:10:35.343Z,77.89
2022-09-23T11:11:21.451Z,78.32
2022-09-23T11:12:20.430Z,81.04
2022-09-23T11:13:20.413Z,83.96
2022-09-23T11:14:20.455Z,86.02
2022-09-23T11:15:20.382Z,87.00
2022-09-23T11:16:20.554Z,88.56
2022-09-23T11:17:20.375Z,89.79
2022-09-23T11:18:20.376Z,91.85
2022-09-23T11:19:20.356Z,92.96
2022-09-23T11:20:20.350Z,94.96
2022-09-23T11:21:20.325Z,94.93
2022-09-23T11:22:20.306Z,98.78
2022-09-23T11:23:20.295Z,101.77
2022-09-23T11:24:20.306Z,102.58
2022-09-23T11:25:20.287Z,104.88
2022-09-23T11:26:20.268Z,105.74
2022-09-23T11:27:20.256Z,107.50
2022-09-23T11:28:20.248Z,110.39
2022-09-23T11:29:20.243Z,109.46
2022-09-23T11:30:20.257Z,104.29
2022-09-23T11:31:20.311Z,103.33
2022-09-23T11:32:20.198Z,106.68
2022-09-23T11:33:20.186Z,112.76
2022-09-23T11:34:20.272Z,116.11
2022-09-23T11:35:20.194Z,118.73
2022-09-23T11:36:20.172Z,122.36
2022-09-23T11:37:20.127Z,125.65
2022-09-23T11:38:20.124Z,125.09
2022-09-23T11:39:20.135Z,128.93
2022-09-23T11:40:20.191Z,123.26
2022-09-23T11:41:20.093Z,120.69
2022-09-23T11:42:20.084Z,118.40
2022-09-23T11:43:20.104Z,120.61
2022-09-23T11:44:20.098Z,124.08
2022-09-23T11:45:20.074Z,126.12
2022-09-23T11:46:20.097Z,126.50
2022-09-23T11:47:20.025Z,126.89
2022-09-23T11:48:20.017Z,124.26
2022-09-23T11:49:20.012Z,120.61
2022-09-23T11:50:19.993Z,117.40
2022-09-23T11:51:20.005Z,111.12
2022-09-23T11:52:19.970Z,106.27
2022-09-23T11:53:19.959Z,102.83
2022-09-23T11:54:20.856Z,97.52
2022-09-23T11:55:22.991Z,94.13
2022-09-23T11:56:32.371Z,93.48
2022-09-23T11:57:20.915Z,96.51
2022-09-23T11:58:25.642Z,100.79
2022-09-23T11:59:31.020Z,107.08
2022-09-23T12:00:20.884Z,110.97
2022-09-23T12:01:28.098Z,114.14
2022-09-23T12:02:22.951Z,115.00
2022-09-23T12:03:20.278Z,119.07
2022-09-23T12:04:21.305Z,118.90
2022-09-23T12:05:19.991Z,122.72
2022-09-23T12:06:19.823Z,125.47
2022-09-23T12:07:19.806Z,127.08
2022-09-23T12:08:19.792Z,127.37
2022-09-23T12:09:30.971Z,129.53
2022-09-23T12:10:20.790Z,132.80
2022-09-23T12:11:19.763Z,133.12
2022-09-23T12:12:22.876Z,132.59
2022-09-23T12:13:20.729Z,133.12
2022-09-23T12:14:19.718Z,135.69
2022-09-23T12:15:19.707Z,136.57
2022-09-23T12:16:19.760Z,136.91
2022-09-23T12:17:19.693Z,137.92
2022-09-23T12:18:23.163Z,140.22
2022-09-23T12:19:19.694Z,140.93
2022-09-23T12:20:19.701Z,139.99
2022-09-23T12:21:39.114Z,137.81
2022-09-23T12:22:20.647Z,133.12
2022-09-23T12:23:19.633Z,128.44
2022-09-23T12:24:19.628Z,125.28
2022-09-23T12:25:19.605Z,122.27
2022-09-23T12:26:19.626Z,121.13
2022-09-23T12:27:19.582Z,122.27
2022-09-23T12:28:19.576Z,127.08
2022-09-23T12:29:19.630Z,129.83
2022-09-23T12:30:19.596Z,132.80
2022-09-23T12:31:19.609Z,135.15
2022-09-23T12:32:19.550Z,134.29
2022-09-23T12:33:19.507Z,127.66
2022-09-23T12:34:19.522Z,124.44
2022-09-23T12:35:19.502Z,120.95
2022-09-23T12:36:19.510Z,118.48
2022-09-23T12:37:19.511Z,116.67
2022-09-23T12:38:19.467Z,114.53
2022-09-23T12:39:19.463Z,111.79
2022-09-23T12:40:19.510Z,110.75
2022-09-23T12:41:19.463Z,112.23
2022-09-23T12:42:19.547Z,114.53
2022-09-23T12:43:19.428Z,118.15
2022-09-23T12:44:19.398Z,120.43
2022-09-23T12:45:19.402Z,125.19